sensor_id;sensor_type;location;lat;lon;timestamp;P1;durP1;ratioP1;P2;durP2;ratioP2
73550;SDS011;61816;53.582;10.096;2024-02-21T00:00:12;82.15;;;33.65;;
73550;SDS011;61816;53.582;10.096;2024-02-21T00:02:38;80.00;;;31.17;;
73550;SDS011;61816;53.582;10.096;2024-02-21T00:05:03;84.05;;;32.38;;
73550;SDS011;61816;53.582;10.096;2024-02-21T00:07:29;79.18;;;34.20;;
73550;SDS011;61816;53.582;10.096;2024-02-21T00:09:54;81.20;;;31.65;;
73550;SDS011;61816;53.582;10.096;2024-02-21T00:12:20;85.82;;;36.33;;
73550;SDS011;61816;53.582;10.096;2024-02-21T00:14:45;101.80;;;37.97;;
73550;SDS011;61816;53.582;10.096;2024-02-21T00:17:11;101.55;;;34.08;;
73550;SDS011;61816;53.582;10.096;2024-02-21T00:19:36;91.30;;;36.38;;
73550;SDS011;61816;53.582;10.096;2024-02-21T00:22:01;85.78;;;35.78;;
73550;SDS011;61816;53.582;10.096;2024-02-21T00:24:26;93.38;;;36.83;;
73550;SDS011;61816;53.582;10.096;2024-02-21T00:26:53;104.82;;;36.17;;
73550;SDS011;61816;53.582;10.096;2024-02-21T00:29:18;80.57;;;35.70;;
73550;SDS011;61816;53.582;10.096;2024-02-21T00:31:44;83.28;;;34.58;;
73550;SDS011;61816;53.582;10.096;2024-02-21T00:34:09;93.18;;;36.95;;
73550;SDS011;61816;53.582;10.096;2024-02-21T00:36:36;99.95;;;40.65;;
73550;SDS011;61816;53.582;10.096;2024-02-21T00:39:01;98.25;;;40.47;;
73550;SDS011;61816;53.582;10.096;2024-02-21T00:41:27;90.90;;;35.13;;
73550;SDS011;61816;53.582;10.096;2024-02-21T00:43:52;93.35;;;38.15;;
73550;SDS011;61816;53.582;10.096;2024-02-21T00:46:17;106.47;;;39.67;;
73550;SDS011;61816;53.582;10.096;2024-02-21T00:48:42;90.40;;;37.75;;
73550;SDS011;61816;53.582;10.096;2024-02-21T00:51:08;83.28;;;39.92;;
73550;SDS011;61816;53.582;10.096;2024-02-21T00:53:33;88.47;;;42.45;;
73550;SDS011;61816;53.582;10.096;2024-02-21T00:55:58;83.43;;;37.72;;
73550;SDS011;61816;53.582;10.096;2024-02-21T00:58:24;96.50;;;39.45;;
73550;SDS011;61816;53.582;10.096;2024-02-21T01:00:49;89.70;;;37.97;;
73550;SDS011;61816;53.582;10.096;2024-02-21T01:03:14;92.35;;;38.08;;
73550;SDS011;61816;53.582;10.096;2024-02-21T01:05:40;95.05;;;37.83;;
73550;SDS011;61816;53.582;10.096;2024-02-21T01:08:05;97.50;;;39.15;;
73550;SDS011;61816;53.582;10.096;2024-02-21T01:10:30;100.03;;;37.65;;
73550;SDS011;61816;53.582;10.096;2024-02-21T01:12:56;96.35;;;43.45;;
73550;SDS011;61816;53.582;10.096;2024-02-21T01:15:21;86.80;;;39.05;;
73550;SDS011;61816;53.582;10.096;2024-02-21T01:17:47;87.88;;;39.08;;
73550;SDS011;61816;53.582;10.096;2024-02-21T01:20:12;96.88;;;39.65;;
73550;SDS011;61816;53.582;10.096;2024-02-21T01:22:37;92.85;;;40.67;;
73550;SDS011;61816;53.582;10.096;2024-02-21T01:25:03;110.40;;;42.83;;
73550;SDS011;61816;53.582;10.096;2024-02-21T01:27:28;93.28;;;41.70;;
73550;SDS011;61816;53.582;10.096;2024-02-21T01:29:54;105.28;;;43.55;;
73550;SDS011;61816;53.582;10.096;2024-02-21T01:32:19;93.05;;;44.67;;
73550;SDS011;61816;53.582;10.096;2024-02-21T01:34:44;111.13;;;41.90;;
73550;SDS011;61816;53.582;10.096;2024-02-21T01:37:10;88.63;;;41.83;;
73550;SDS011;61816;53.582;10.096;2024-02-21T01:39:35;89.30;;;42.67;;
73550;SDS011;61816;53.582;10.096;2024-02-21T01:42:06;92.50;;;43.00;;
73550;SDS011;61816;53.582;10.096;2024-02-21T01:44:31;99.78;;;43.28;;
73550;SDS011;61816;53.582;10.096;2024-02-21T01:46:57;109.10;;;48.30;;
73550;SDS011;61816;53.582;10.096;2024-02-21T01:49:23;105.28;;;45.25;;
73550;SDS011;61816;53.582;10.096;2024-02-21T01:51:48;97.00;;;46.33;;
73550;SDS011;61816;53.582;10.096;2024-02-21T01:54:14;119.63;;;48.58;;
73550;SDS011;61816;53.582;10.096;2024-02-21T01:56:41;114.53;;;49.90;;
73550;SDS011;61816;53.582;10.096;2024-02-21T01:59:07;101.88;;;51.25;;
73550;SDS011;61816;53.582;10.096;2024-02-21T02:01:33;114.85;;;49.53;;
73550;SDS011;61816;53.582;10.096;2024-02-21T02:03:59;106.60;;;49.53;;
73550;SDS011;61816;53.582;10.096;2024-02-21T02:06:24;124.22;;;51.70;;
73550;SDS011;61816;53.582;10.096;2024-02-21T02:08:49;133.82;;;55.67;;
73550;SDS011;61816;53.582;10.096;2024-02-21T02:11:15;112.30;;;50.90;;
73550;SDS011;61816;53.582;10.096;2024-02-21T02:13:41;107.55;;;55.50;;
73550;SDS011;61816;53.582;10.096;2024-02-21T02:16:06;126.90;;;53.15;;
73550;SDS011;61816;53.582;10.096;2024-02-21T02:18:32;119.72;;;53.08;;
73550;SDS011;61816;53.582;10.096;2024-02-21T02:20:57;125.25;;;57.97;;
73550;SDS011;61816;53.582;10.096;2024-02-21T02:23:24;121.25;;;57.22;;
73550;SDS011;61816;53.582;10.096;2024-02-21T02:25:50;116.72;;;54.55;;
73550;SDS011;61816;53.582;10.096;2024-02-21T02:28:18;129.05;;;58.63;;
73550;SDS011;61816;53.582;10.096;2024-02-21T02:30:44;123.97;;;56.17;;
73550;SDS011;61816;53.582;10.096;2024-02-21T02:33:09;131.98;;;56.63;;
73550;SDS011;61816;53.582;10.096;2024-02-21T02:35:35;141.15;;;58.42;;
73550;SDS011;61816;53.582;10.096;2024-02-21T02:38:01;123.70;;;56.40;;
73550;SDS011;61816;53.582;10.096;2024-02-21T02:40:27;128.63;;;57.30;;
73550;SDS011;61816;53.582;10.096;2024-02-21T02:42:53;127.07;;;60.53;;
73550;SDS011;61816;53.582;10.096;2024-02-21T02:45:20;132.40;;;54.42;;
73550;SDS011;61816;53.582;10.096;2024-02-21T02:47:48;119.55;;;52.28;;
73550;SDS011;61816;53.582;10.096;2024-02-21T02:50:13;134.32;;;54.42;;
73550;SDS011;61816;53.582;10.096;2024-02-21T02:52:39;118.85;;;53.17;;
73550;SDS011;61816;53.582;10.096;2024-02-21T02:55:05;117.53;;;53.63;;
73550;SDS011;61816;53.582;10.096;2024-02-21T02:57:31;112.40;;;50.10;;
73550;SDS011;61816;53.582;10.096;2024-02-21T02:59:56;93.63;;;49.13;;
73550;SDS011;61816;53.582;10.096;2024-02-21T03:02:22;106.78;;;51.55;;
73550;SDS011;61816;53.582;10.096;2024-02-21T03:04:48;103.18;;;45.95;;
73550;SDS011;61816;53.582;10.096;2024-02-21T03:07:14;110.78;;;49.75;;
73550;SDS011;61816;53.582;10.096;2024-02-21T03:09:39;106.55;;;48.00;;
73550;SDS011;61816;53.582;10.096;2024-02-21T03:12:05;109.53;;;45.78;;
73550;SDS011;61816;53.582;10.096;2024-02-21T03:14:32;95.85;;;45.78;;
73550;SDS011;61816;53.582;10.096;2024-02-21T03:16:58;115.18;;;48.67;;
73550;SDS011;61816;53.582;10.096;2024-02-21T03:19:24;108.15;;;50.50;;
73550;SDS011;61816;53.582;10.096;2024-02-21T03:21:49;94.90;;;46.60;;
73550;SDS011;61816;53.582;10.096;2024-02-21T03:24:16;102.00;;;45.92;;
73550;SDS011;61816;53.582;10.096;2024-02-21T03:26:41;110.57;;;50.58;;
73550;SDS011;61816;53.582;10.096;2024-02-21T03:29:06;121.78;;;49.42;;
73550;SDS011;61816;53.582;10.096;2024-02-21T03:31:32;110.32;;;49.47;;
73550;SDS011;61816;53.582;10.096;2024-02-21T03:33:57;98.45;;;44.58;;
73550;SDS011;61816;53.582;10.096;2024-02-21T03:36:23;89.82;;;42.28;;
73550;SDS011;61816;53.582;10.096;2024-02-21T03:38:48;92.43;;;44.45;;
73550;SDS011;61816;53.582;10.096;2024-02-21T03:41:13;102.07;;;44.90;;
73550;SDS011;61816;53.582;10.096;2024-02-21T03:43:39;95.25;;;43.53;;
73550;SDS011;61816;53.582;10.096;2024-02-21T03:46:04;110.15;;;45.97;;
73550;SDS011;61816;53.582;10.096;2024-02-21T03:48:30;105.97;;;45.13;;
73550;SDS011;61816;53.582;10.096;2024-02-21T03:50:55;88.88;;;43.97;;
73550;SDS011;61816;53.582;10.096;2024-02-21T03:53:20;94.13;;;42.33;;
73550;SDS011;61816;53.582;10.096;2024-02-21T03:55:45;95.40;;;44.97;;
73550;SDS011;61816;53.582;10.096;2024-02-21T03:58:11;102.20;;;44.22;;
73550;SDS011;61816;53.582;10.096;2024-02-21T04:00:36;110.63;;;45.97;;
73550;SDS011;61816;53.582;10.096;2024-02-21T04:03:02;100.72;;;46.58;;
73550;SDS011;61816;53.582;10.096;2024-02-21T04:05:27;107.43;;;48.78;;
73550;SDS011;61816;53.582;10.096;2024-02-21T04:07:53;102.13;;;46.00;;
73550;SDS011;61816;53.582;10.096;2024-02-21T04:10:18;112.78;;;50.15;;
73550;SDS011;61816;53.582;10.096;2024-02-21T04:12:44;110.97;;;50.22;;
73550;SDS011;61816;53.582;10.096;2024-02-21T04:15:09;108.80;;;48.85;;
73550;SDS011;61816;53.582;10.096;2024-02-21T04:17:34;114.22;;;54.95;;
73550;SDS011;61816;53.582;10.096;2024-02-21T04:20:04;115.45;;;50.97;;
73550;SDS011;61816;53.582;10.096;2024-02-21T04:22:33;116.95;;;49.88;;
73550;SDS011;61816;53.582;10.096;2024-02-21T04:24:59;118.55;;;52.13;;
73550;SDS011;61816;53.582;10.096;2024-02-21T04:27:25;120.95;;;54.53;;
73550;SDS011;61816;53.582;10.096;2024-02-21T04:29:50;106.70;;;51.53;;
73550;SDS011;61816;53.582;10.096;2024-02-21T04:32:15;113.60;;;53.65;;
73550;SDS011;61816;53.582;10.096;2024-02-21T04:34:41;115.60;;;50.63;;
73550;SDS011;61816;53.582;10.096;2024-02-21T04:37:06;120.30;;;52.00;;
73550;SDS011;61816;53.582;10.096;2024-02-21T04:39:31;108.90;;;48.63;;
73550;SDS011;61816;53.582;10.096;2024-02-21T04:41:57;112.13;;;48.67;;
73550;SDS011;61816;53.582;10.096;2024-02-21T04:44:22;94.03;;;45.45;;
73550;SDS011;61816;53.582;10.096;2024-02-21T04:46:47;96.75;;;46.75;;
73550;SDS011;61816;53.582;10.096;2024-02-21T04:49:13;96.97;;;44.85;;
73550;SDS011;61816;53.582;10.096;2024-02-21T04:51:39;112.18;;;45.40;;
73550;SDS011;61816;53.582;10.096;2024-02-21T04:54:05;97.32;;;45.10;;
73550;SDS011;61816;53.582;10.096;2024-02-21T04:56:31;89.68;;;45.65;;
73550;SDS011;61816;53.582;10.096;2024-02-21T04:58:56;93.90;;;47.55;;
73550;SDS011;61816;53.582;10.096;2024-02-21T05:01:22;115.45;;;50.25;;
73550;SDS011;61816;53.582;10.096;2024-02-21T05:03:47;115.30;;;51.03;;
73550;SDS011;61816;53.582;10.096;2024-02-21T05:06:12;89.07;;;45.28;;
73550;SDS011;61816;53.582;10.096;2024-02-21T05:08:38;86.35;;;48.85;;
73550;SDS011;61816;53.582;10.096;2024-02-21T05:11:03;100.32;;;44.42;;
73550;SDS011;61816;53.582;10.096;2024-02-21T05:13:28;84.40;;;41.60;;
73550;SDS011;61816;53.582;10.096;2024-02-21T05:15:54;90.60;;;42.22;;
73550;SDS011;61816;53.582;10.096;2024-02-21T05:18:19;93.82;;;42.75;;
73550;SDS011;61816;53.582;10.096;2024-02-21T05:20:45;93.20;;;43.08;;
73550;SDS011;61816;53.582;10.096;2024-02-21T05:23:11;93.88;;;42.60;;
73550;SDS011;61816;53.582;10.096;2024-02-21T05:25:36;103.15;;;43.05;;
73550;SDS011;61816;53.582;10.096;2024-02-21T05:28:01;96.00;;;43.30;;
73550;SDS011;61816;53.582;10.096;2024-02-21T05:30:28;76.95;;;39.55;;
73550;SDS011;61816;53.582;10.096;2024-02-21T05:32:54;83.22;;;39.28;;
73550;SDS011;61816;53.582;10.096;2024-02-21T05:35:19;78.00;;;37.45;;
73550;SDS011;61816;53.582;10.096;2024-02-21T05:37:49;78.15;;;37.78;;
73550;SDS011;61816;53.582;10.096;2024-02-21T05:40:17;88.00;;;39.40;;
73550;SDS011;61816;53.582;10.096;2024-02-21T05:42:43;62.92;;;32.67;;
73550;SDS011;61816;53.582;10.096;2024-02-21T05:45:08;65.40;;;33.13;;
73550;SDS011;61816;53.582;10.096;2024-02-21T05:47:34;74.85;;;34.38;;
73550;SDS011;61816;53.582;10.096;2024-02-21T05:49:59;69.50;;;33.42;;
73550;SDS011;61816;53.582;10.096;2024-02-21T05:52:25;65.15;;;32.70;;
73550;SDS011;61816;53.582;10.096;2024-02-21T05:54:50;78.70;;;36.15;;
73550;SDS011;61816;53.582;10.096;2024-02-21T05:57:16;65.35;;;30.38;;
73550;SDS011;61816;53.582;10.096;2024-02-21T05:59:43;55.88;;;30.75;;
73550;SDS011;61816;53.582;10.096;2024-02-21T06:02:08;64.07;;;29.85;;
73550;SDS011;61816;53.582;10.096;2024-02-21T06:04:34;54.22;;;27.35;;
73550;SDS011;61816;53.582;10.096;2024-02-21T06:07:02;44.95;;;24.13;;
73550;SDS011;61816;53.582;10.096;2024-02-21T06:09:28;55.03;;;25.17;;
73550;SDS011;61816;53.582;10.096;2024-02-21T06:11:53;44.17;;;24.00;;
73550;SDS011;61816;53.582;10.096;2024-02-21T06:14:19;48.35;;;24.75;;
73550;SDS011;61816;53.582;10.096;2024-02-21T06:16:47;41.35;;;21.92;;
73550;SDS011;61816;53.582;10.096;2024-02-21T06:19:15;49.85;;;23.58;;
73550;SDS011;61816;53.582;10.096;2024-02-21T06:21:41;41.85;;;19.25;;
73550;SDS011;61816;53.582;10.096;2024-02-21T06:24:06;38.17;;;20.73;;
73550;SDS011;61816;53.582;10.096;2024-02-21T06:26:32;31.13;;;16.92;;
73550;SDS011;61816;53.582;10.096;2024-02-21T06:28:57;18.70;;;11.30;;
73550;SDS011;61816;53.582;10.096;2024-02-21T06:31:24;24.63;;;11.77;;
73550;SDS011;61816;53.582;10.096;2024-02-21T06:33:50;28.95;;;12.63;;
73550;SDS011;61816;53.582;10.096;2024-02-21T06:36:15;27.38;;;13.23;;
73550;SDS011;61816;53.582;10.096;2024-02-21T06:38:40;27.83;;;12.98;;
73550;SDS011;61816;53.582;10.096;2024-02-21T06:41:06;38.50;;;16.00;;
73550;SDS011;61816;53.582;10.096;2024-02-21T06:43:31;31.13;;;16.52;;
73550;SDS011;61816;53.582;10.096;2024-02-21T06:45:56;32.38;;;15.10;;
73550;SDS011;61816;53.582;10.096;2024-02-21T06:48:22;32.08;;;17.35;;
73550;SDS011;61816;53.582;10.096;2024-02-21T06:50:47;31.15;;;15.93;;
73550;SDS011;61816;53.582;10.096;2024-02-21T06:53:13;40.70;;;17.67;;
73550;SDS011;61816;53.582;10.096;2024-02-21T06:55:38;39.75;;;17.52;;
73550;SDS011;61816;53.582;10.096;2024-02-21T06:58:04;37.50;;;17.52;;
73550;SDS011;61816;53.582;10.096;2024-02-21T07:00:29;32.95;;;15.35;;
73550;SDS011;61816;53.582;10.096;2024-02-21T07:02:55;25.52;;;14.60;;
73550;SDS011;61816;53.582;10.096;2024-02-21T07:05:20;20.98;;;12.45;;
73550;SDS011;61816;53.582;10.096;2024-02-21T07:07:46;23.85;;;13.23;;
73550;SDS011;61816;53.582;10.096;2024-02-21T07:10:11;24.00;;;12.48;;
73550;SDS011;61816;53.582;10.096;2024-02-21T07:12:36;22.13;;;12.52;;
73550;SDS011;61816;53.582;10.096;2024-02-21T07:15:07;20.60;;;11.27;;
73550;SDS011;61816;53.582;10.096;2024-02-21T07:17:32;20.35;;;11.85;;
73550;SDS011;61816;53.582;10.096;2024-02-21T07:19:58;25.83;;;12.88;;
73550;SDS011;61816;53.582;10.096;2024-02-21T07:22:24;27.10;;;13.32;;
73550;SDS011;61816;53.582;10.096;2024-02-21T07:24:49;26.90;;;15.55;;
73550;SDS011;61816;53.582;10.096;2024-02-21T07:27:15;24.60;;;14.70;;
73550;SDS011;61816;53.582;10.096;2024-02-21T07:29:41;30.08;;;16.95;;
73550;SDS011;61816;53.582;10.096;2024-02-21T07:32:06;32.55;;;17.63;;
73550;SDS011;61816;53.582;10.096;2024-02-21T07:34:31;32.10;;;17.52;;
73550;SDS011;61816;53.582;10.096;2024-02-21T07:36:57;28.98;;;17.52;;
73550;SDS011;61816;53.582;10.096;2024-02-21T07:39:22;28.75;;;17.48;;
73550;SDS011;61816;53.582;10.096;2024-02-21T07:41:48;33.33;;;17.98;;
73550;SDS011;61816;53.582;10.096;2024-02-21T07:44:14;33.60;;;18.17;;
73550;SDS011;61816;53.582;10.096;2024-02-21T07:46:40;31.75;;;17.20;;
73550;SDS011;61816;53.582;10.096;2024-02-21T07:49:05;30.75;;;17.38;;
73550;SDS011;61816;53.582;10.096;2024-02-21T07:51:31;25.02;;;15.25;;
73550;SDS011;61816;53.582;10.096;2024-02-21T07:53:56;24.58;;;15.27;;
73550;SDS011;61816;53.582;10.096;2024-02-21T07:56:27;20.38;;;13.88;;
73550;SDS011;61816;53.582;10.096;2024-02-21T07:58:52;23.60;;;13.47;;
73550;SDS011;61816;53.582;10.096;2024-02-21T08:01:18;25.98;;;14.93;;
73550;SDS011;61816;53.582;10.096;2024-02-21T08:03:45;20.00;;;13.30;;
73550;SDS011;61816;53.582;10.096;2024-02-21T08:06:11;19.83;;;12.90;;
73550;SDS011;61816;53.582;10.096;2024-02-21T08:08:38;22.90;;;12.07;;
73550;SDS011;61816;53.582;10.096;2024-02-21T08:11:03;20.20;;;11.50;;
73550;SDS011;61816;53.582;10.096;2024-02-21T08:13:29;24.65;;;12.68;;
73550;SDS011;61816;53.582;10.096;2024-02-21T08:15:54;16.15;;;10.15;;
73550;SDS011;61816;53.582;10.096;2024-02-21T08:18:19;21.95;;;9.07;;
73550;SDS011;61816;53.582;10.096;2024-02-21T08:20:45;26.35;;;9.25;;
73550;SDS011;61816;53.582;10.096;2024-02-21T08:23:10;27.95;;;8.55;;
73550;SDS011;61816;53.582;10.096;2024-02-21T08:25:35;30.15;;;9.15;;
73550;SDS011;61816;53.582;10.096;2024-02-21T08:28:01;30.42;;;7.60;;
73550;SDS011;61816;53.582;10.096;2024-02-21T08:30:27;27.52;;;7.03;;
73550;SDS011;61816;53.582;10.096;2024-02-21T08:32:52;31.38;;;7.78;;
73550;SDS011;61816;53.582;10.096;2024-02-21T08:35:19;34.45;;;7.10;;
73550;SDS011;61816;53.582;10.096;2024-02-21T08:37:47;36.25;;;7.28;;
73550;SDS011;61816;53.582;10.096;2024-02-21T08:40:13;40.15;;;8.90;;
73550;SDS011;61816;53.582;10.096;2024-02-21T08:42:42;33.97;;;5.90;;
73550;SDS011;61816;53.582;10.096;2024-02-21T08:45:08;58.90;;;8.50;;
73550;SDS011;61816;53.582;10.096;2024-02-21T08:47:34;42.92;;;6.47;;
73550;SDS011;61816;53.582;10.096;2024-02-21T08:50:01;37.08;;;6.97;;
73550;SDS011;61816;53.582;10.096;2024-02-21T08:52:27;47.85;;;6.57;;
73550;SDS011;61816;53.582;10.096;2024-02-21T08:54:52;46.05;;;7.22;;
73550;SDS011;61816;53.582;10.096;2024-02-21T08:57:18;46.50;;;7.13;;
73550;SDS011;61816;53.582;10.096;2024-02-21T08:59:44;46.55;;;6.68;;
73550;SDS011;61816;53.582;10.096;2024-02-21T09:02:10;51.47;;;8.20;;
73550;SDS011;61816;53.582;10.096;2024-02-21T09:04:35;44.92;;;7.10;;
73550;SDS011;61816;53.582;10.096;2024-02-21T09:07:00;53.72;;;6.75;;
73550;SDS011;61816;53.582;10.096;2024-02-21T09:09:26;37.22;;;7.18;;
73550;SDS011;61816;53.582;10.096;2024-02-21T09:11:53;46.28;;;8.13;;
73550;SDS011;61816;53.582;10.096;2024-02-21T09:14:18;42.30;;;7.60;;
73550;SDS011;61816;53.582;10.096;2024-02-21T09:16:44;49.83;;;8.07;;
73550;SDS011;61816;53.582;10.096;2024-02-21T09:19:09;52.33;;;9.40;;
73550;SDS011;61816;53.582;10.096;2024-02-21T09:21:36;55.28;;;8.55;;
73550;SDS011;61816;53.582;10.096;2024-02-21T09:24:02;41.20;;;8.43;;
73550;SDS011;61816;53.582;10.096;2024-02-21T09:26:28;38.25;;;7.55;;
73550;SDS011;61816;53.582;10.096;2024-02-21T09:28:53;35.25;;;7.18;;
73550;SDS011;61816;53.582;10.096;2024-02-21T09:31:18;48.65;;;8.00;;
73550;SDS011;61816;53.582;10.096;2024-02-21T09:33:44;45.05;;;8.68;;
73550;SDS011;61816;53.582;10.096;2024-02-21T09:36:10;36.38;;;6.20;;
73550;SDS011;61816;53.582;10.096;2024-02-21T09:38:35;46.05;;;7.78;;
73550;SDS011;61816;53.582;10.096;2024-02-21T09:41:25;33.10;;;7.38;;
73550;SDS011;61816;53.582;10.096;2024-02-21T09:43:53;32.28;;;6.35;;
73550;SDS011;61816;53.582;10.096;2024-02-21T09:46:19;35.45;;;7.47;;
73550;SDS011;61816;53.582;10.096;2024-02-21T09:48:58;39.25;;;6.63;;
73550;SDS011;61816;53.582;10.096;2024-02-21T09:51:30;43.35;;;7.75;;
73550;SDS011;61816;53.582;10.096;2024-02-21T09:53:57;31.20;;;6.50;;
73550;SDS011;61816;53.582;10.096;2024-02-21T09:56:24;30.88;;;7.43;;
73550;SDS011;61816;53.582;10.096;2024-02-21T09:58:50;39.20;;;8.18;;
73550;SDS011;61816;53.582;10.096;2024-02-21T10:01:15;27.05;;;7.70;;
73550;SDS011;61816;53.582;10.096;2024-02-21T10:03:41;31.65;;;9.25;;
73550;SDS011;61816;53.582;10.096;2024-02-21T10:06:08;28.45;;;8.88;;
73550;SDS011;61816;53.582;10.096;2024-02-21T10:08:34;39.75;;;10.45;;
73550;SDS011;61816;53.582;10.096;2024-02-21T10:10:59;31.17;;;9.32;;
73550;SDS011;61816;53.582;10.096;2024-02-21T10:13:27;27.52;;;9.40;;
73550;SDS011;61816;53.582;10.096;2024-02-21T10:16:02;29.63;;;10.65;;
73550;SDS011;61816;53.582;10.096;2024-02-21T10:18:32;28.55;;;10.50;;
73550;SDS011;61816;53.582;10.096;2024-02-21T10:21:01;26.90;;;10.55;;
73550;SDS011;61816;53.582;10.096;2024-02-21T10:23:26;29.08;;;12.73;;
73550;SDS011;61816;53.582;10.096;2024-02-21T10:25:52;27.80;;;12.15;;
73550;SDS011;61816;53.582;10.096;2024-02-21T10:28:17;29.65;;;13.88;;
73550;SDS011;61816;53.582;10.096;2024-02-21T10:30:51;30.75;;;15.70;;
73550;SDS011;61816;53.582;10.096;2024-02-21T10:33:17;34.17;;;16.17;;
73550;SDS011;61816;53.582;10.096;2024-02-21T10:35:45;37.58;;;20.60;;
73550;SDS011;61816;53.582;10.096;2024-02-21T10:38:12;42.30;;;22.30;;
73550;SDS011;61816;53.582;10.096;2024-02-21T10:40:38;45.50;;;23.80;;
73550;SDS011;61816;53.582;10.096;2024-02-21T10:43:03;46.75;;;25.63;;
73550;SDS011;61816;53.582;10.096;2024-02-21T10:45:31;50.95;;;25.42;;
73550;SDS011;61816;53.582;10.096;2024-02-21T10:48:08;45.28;;;25.90;;
73550;SDS011;61816;53.582;10.096;2024-02-21T10:50:50;50.03;;;27.23;;
73550;SDS011;61816;53.582;10.096;2024-02-21T10:53:29;58.72;;;29.70;;
73550;SDS011;61816;53.582;10.096;2024-02-21T10:58:57;65.10;;;33.95;;
73550;SDS011;61816;53.582;10.096;2024-02-21T11:01:23;69.03;;;35.83;;
73550;SDS011;61816;53.582;10.096;2024-02-21T11:03:52;70.50;;;32.83;;
73550;SDS011;61816;53.582;10.096;2024-02-21T11:06:19;73.93;;;35.58;;
73550;SDS011;61816;53.582;10.096;2024-02-21T11:08:47;65.05;;;32.85;;
73550;SDS011;61816;53.582;10.096;2024-02-21T11:11:13;64.25;;;33.50;;
73550;SDS011;61816;53.582;10.096;2024-02-21T11:13:43;67.90;;;34.17;;
73550;SDS011;61816;53.582;10.096;2024-02-21T11:16:11;70.15;;;33.08;;
73550;SDS011;61816;53.582;10.096;2024-02-21T11:18:46;60.22;;;30.00;;
73550;SDS011;61816;53.582;10.096;2024-02-21T11:21:11;62.38;;;30.00;;
73550;SDS011;61816;53.582;10.096;2024-02-21T11:23:37;55.05;;;26.90;;
73550;SDS011;61816;53.582;10.096;2024-02-21T11:31:13;62.90;;;27.00;;
73550;SDS011;61816;53.582;10.096;2024-02-21T11:33:39;46.38;;;24.42;;
73550;SDS011;61816;53.582;10.096;2024-02-21T11:36:07;48.28;;;23.77;;
73550;SDS011;61816;53.582;10.096;2024-02-21T11:38:33;51.17;;;25.05;;
73550;SDS011;61816;53.582;10.096;2024-02-21T11:40:58;58.65;;;25.00;;
73550;SDS011;61816;53.582;10.096;2024-02-21T11:43:23;53.00;;;25.52;;
73550;SDS011;61816;53.582;10.096;2024-02-21T11:45:49;52.33;;;24.52;;
73550;SDS011;61816;53.582;10.096;2024-02-21T11:48:14;58.33;;;24.50;;
73550;SDS011;61816;53.582;10.096;2024-02-21T11:50:39;47.28;;;23.77;;
73550;SDS011;61816;53.582;10.096;2024-02-21T11:53:05;46.78;;;21.00;;
73550;SDS011;61816;53.582;10.096;2024-02-21T11:55:30;45.72;;;21.70;;
73550;SDS011;61816;53.582;10.096;2024-02-21T11:57:56;53.63;;;22.83;;
73550;SDS011;61816;53.582;10.096;2024-02-21T12:00:21;50.83;;;21.30;;
73550;SDS011;61816;53.582;10.096;2024-02-21T12:02:49;43.67;;;21.38;;
73550;SDS011;61816;53.582;10.096;2024-02-21T12:05:15;38.60;;;18.10;;
73550;SDS011;61816;53.582;10.096;2024-02-21T12:07:40;34.35;;;19.50;;
73550;SDS011;61816;53.582;10.096;2024-02-21T12:10:07;44.17;;;20.90;;
73550;SDS011;61816;53.582;10.096;2024-02-21T12:12:35;37.42;;;20.52;;
73550;SDS011;61816;53.582;10.096;2024-02-21T12:15:02;36.13;;;20.25;;
73550;SDS011;61816;53.582;10.096;2024-02-21T12:17:29;41.38;;;19.60;;
73550;SDS011;61816;53.582;10.096;2024-02-21T12:20:04;45.72;;;20.52;;
73550;SDS011;61816;53.582;10.096;2024-02-21T12:22:36;35.92;;;19.20;;
73550;SDS011;61816;53.582;10.096;2024-02-21T12:25:15;36.08;;;17.75;;
73550;SDS011;61816;53.582;10.096;2024-02-21T12:27:45;41.50;;;18.75;;
73550;SDS011;61816;53.582;10.096;2024-02-21T12:30:11;36.38;;;16.50;;
73550;SDS011;61816;53.582;10.096;2024-02-21T12:32:36;38.22;;;18.85;;
73550;SDS011;61816;53.582;10.096;2024-02-21T12:35:02;39.53;;;19.83;;
73550;SDS011;61816;53.582;10.096;2024-02-21T12:37:28;43.90;;;19.70;;
73550;SDS011;61816;53.582;10.096;2024-02-21T12:39:54;39.67;;;19.10;;
73550;SDS011;61816;53.582;10.096;2024-02-21T12:42:19;37.05;;;17.50;;
73550;SDS011;61816;53.582;10.096;2024-02-21T12:44:44;43.05;;;18.67;;
73550;SDS011;61816;53.582;10.096;2024-02-21T12:47:11;43.40;;;19.10;;
73550;SDS011;61816;53.582;10.096;2024-02-21T12:49:37;50.33;;;20.08;;
73550;SDS011;61816;53.582;10.096;2024-02-21T12:52:02;49.75;;;19.83;;
73550;SDS011;61816;53.582;10.096;2024-02-21T12:54:28;41.42;;;20.17;;
73550;SDS011;61816;53.582;10.096;2024-02-21T12:56:55;51.22;;;21.38;;
73550;SDS011;61816;53.582;10.096;2024-02-21T12:59:20;45.47;;;22.52;;
73550;SDS011;61816;53.582;10.096;2024-02-21T13:01:46;53.53;;;21.85;;
73550;SDS011;61816;53.582;10.096;2024-02-21T13:04:11;52.20;;;23.02;;
73550;SDS011;61816;53.582;10.096;2024-02-21T13:06:36;54.85;;;22.27;;
73550;SDS011;61816;53.582;10.096;2024-02-21T13:09:02;64.38;;;22.38;;
73550;SDS011;61816;53.582;10.096;2024-02-21T13:11:29;47.35;;;22.33;;
73550;SDS011;61816;53.582;10.096;2024-02-21T13:13:56;43.67;;;22.33;;
73550;SDS011;61816;53.582;10.096;2024-02-21T13:16:21;55.13;;;22.27;;
73550;SDS011;61816;53.582;10.096;2024-02-21T13:18:47;47.03;;;21.40;;
73550;SDS011;61816;53.582;10.096;2024-02-21T13:21:13;50.35;;;21.48;;
73550;SDS011;61816;53.582;10.096;2024-02-21T13:23:39;45.15;;;20.05;;
73550;SDS011;61816;53.582;10.096;2024-02-21T13:26:05;39.92;;;17.98;;
73550;SDS011;61816;53.582;10.096;2024-02-21T13:28:30;48.13;;;20.63;;
73550;SDS011;61816;53.582;10.096;2024-02-21T13:30:56;51.42;;;21.60;;
73550;SDS011;61816;53.582;10.096;2024-02-21T13:33:22;41.60;;;20.85;;
73550;SDS011;61816;53.582;10.096;2024-02-21T13:35:48;42.67;;;20.08;;
73550;SDS011;61816;53.582;10.096;2024-02-21T13:38:13;44.75;;;19.58;;
73550;SDS011;61816;53.582;10.096;2024-02-21T13:40:39;40.63;;;18.90;;
73550;SDS011;61816;53.582;10.096;2024-02-21T13:43:07;40.08;;;19.35;;
73550;SDS011;61816;53.582;10.096;2024-02-21T13:45:32;45.83;;;18.27;;
73550;SDS011;61816;53.582;10.096;2024-02-21T13:47:58;42.25;;;19.15;;
73550;SDS011;61816;53.582;10.096;2024-02-21T13:50:27;36.33;;;18.70;;
73550;SDS011;61816;53.582;10.096;2024-02-21T13:52:55;41.47;;;18.30;;
73550;SDS011;61816;53.582;10.096;2024-02-21T13:55:21;49.55;;;19.75;;
73550;SDS011;61816;53.582;10.096;2024-02-21T13:57:47;37.13;;;19.63;;
73550;SDS011;61816;53.582;10.096;2024-02-21T14:00:12;51.72;;;19.83;;
73550;SDS011;61816;53.582;10.096;2024-02-21T14:02:38;36.83;;;17.65;;
73550;SDS011;61816;53.582;10.096;2024-02-21T14:05:04;39.88;;;17.13;;
73550;SDS011;61816;53.582;10.096;2024-02-21T14:07:31;43.03;;;17.65;;
73550;SDS011;61816;53.582;10.096;2024-02-21T14:09:58;42.88;;;18.77;;